Terminal Aerodrome Forecast
Issued by NWS Grand Forks, ND

Home | Current Version | Previous Version | Graphics & Text | Print | Product List | Glossary On
Versions: 1 2 3 4 5 6 7 8 9 10 11 12 13 14 15 16 17
153
FTUS43 KFGF 201720
TAFGFK
TAF
KGFK 201720Z 2018/2118 17018G27KT P6SM FEW200
     FM210200 17016G25KT P6SM SCT250
     FM211300 20013KT P6SM SCT150
     FM211500 24011KT P6SM BKN200=

USA.gov is the U.S. government's official web portal to all federal, state and local government web resources and services.